createdAt,value
2023-12-14T00:01:42.639Z,6.44
2023-12-14T00:04:09.617Z,6.43
2023-12-14T00:06:36.244Z,6.42
2023-12-14T00:09:02.703Z,6.41
2023-12-14T00:11:29.201Z,6.41
2023-12-14T00:13:55.683Z,6.41
2023-12-14T00:16:22.150Z,6.38
2023-12-14T00:18:48.728Z,6.37
2023-12-14T00:21:15.220Z,6.35
2023-12-14T00:23:41.728Z,6.35
2023-12-14T00:26:08.383Z,6.36
2023-12-14T00:28:34.975Z,6.35
2023-12-14T00:31:01.886Z,6.36
2023-12-14T00:33:28.614Z,6.36
2023-12-14T00:35:55.152Z,6.36
2023-12-14T00:38:22.709Z,6.36
2023-12-14T00:40:49.573Z,6.35
2023-12-14T00:43:16.033Z,6.35
2023-12-14T00:45:42.673Z,6.35
2023-12-14T00:48:09.382Z,6.36
2023-12-14T00:50:36.165Z,6.34
2023-12-14T00:53:02.695Z,6.33
2023-12-14T00:55:29.556Z,6.33
2023-12-14T00:57:56.031Z,6.33
2023-12-14T01:00:22.672Z,6.33
2023-12-14T01:02:49.187Z,6.32
2023-12-14T01:05:15.987Z,6.33
2023-12-14T01:07:42.451Z,6.34
2023-12-14T01:10:09.426Z,6.35
2023-12-14T01:12:36.138Z,6.35
2023-12-14T01:15:03.524Z,6.35
2023-12-14T01:17:30.473Z,6.36
2023-12-14T01:19:57.165Z,6.35
2023-12-14T01:22:23.728Z,6.37
2023-12-14T01:24:50.203Z,6.37
2023-12-14T01:27:16.838Z,6.37
2023-12-14T01:29:43.324Z,6.37
2023-12-14T01:32:10.122Z,6.37
2023-12-14T01:34:36.601Z,6.37
2023-12-14T01:37:03.193Z,6.38
2023-12-14T01:39:29.616Z,6.37
2023-12-14T01:41:56.108Z,6.37
2023-12-14T01:44:22.556Z,6.37
2023-12-14T01:46:49.048Z,6.35
2023-12-14T01:49:15.663Z,6.36
2023-12-14T01:51:42.121Z,6.37
2023-12-14T01:54:08.596Z,6.37
2023-12-14T01:56:35.064Z,6.36
2023-12-14T01:59:01.739Z,6.38
2023-12-14T02:01:43.492Z,6.38
2023-12-14T02:04:11.311Z,6.38
2023-12-14T02:06:38.094Z,6.38
2023-12-14T02:09:05.129Z,6.36
2023-12-14T02:11:31.970Z,6.36
2023-12-14T02:13:58.602Z,6.37
2023-12-14T02:16:25.304Z,6.36
2023-12-14T02:18:51.940Z,6.36
2023-12-14T02:21:19.842Z,6.36
2023-12-14T02:23:47.198Z,6.36
2023-12-14T02:26:14.380Z,6.39
2023-12-14T02:28:41.395Z,6.38
2023-12-14T02:31:08.012Z,6.37
2023-12-14T02:33:34.630Z,6.37
2023-12-14T02:36:01.216Z,6.35
2023-12-14T02:38:27.710Z,6.36
2023-12-14T02:40:54.302Z,6.36
2023-12-14T02:43:20.733Z,6.36
2023-12-14T02:45:47.251Z,6.36
2023-12-14T02:48:14.021Z,6.35
2023-12-14T02:50:40.458Z,6.34
2023-12-14T02:53:06.972Z,6.33
2023-12-14T02:55:33.458Z,6.30
2023-12-14T02:57:59.921Z,6.29
2023-12-14T03:00:26.450Z,6.30
2023-12-14T03:02:53.409Z,6.30
2023-12-14T03:05:20.080Z,6.30
2023-12-14T03:07:46.800Z,6.32
2023-12-14T03:10:13.423Z,6.30
2023-12-14T03:12:39.948Z,6.33
2023-12-14T03:15:06.752Z,6.33
2023-12-14T03:17:33.429Z,6.34
2023-12-14T03:19:59.979Z,6.35
2023-12-14T03:22:26.635Z,6.34
2023-12-14T03:24:53.027Z,6.34
2023-12-14T03:27:19.474Z,6.36
2023-12-14T03:29:46.142Z,6.36
2023-12-14T03:32:12.716Z,6.38
2023-12-14T03:34:39.391Z,6.38
2023-12-14T03:37:05.838Z,6.39
2023-12-14T03:39:32.554Z,6.41
2023-12-14T03:41:59.092Z,6.41
2023-12-14T03:44:25.591Z,6.44
2023-12-14T03:46:52.381Z,6.43
2023-12-14T03:49:18.958Z,6.44
2023-12-14T03:51:45.395Z,6.45
2023-12-14T03:54:11.942Z,6.47
2023-12-14T03:56:38.397Z,6.44
2023-12-14T03:59:05.051Z,6.45
2023-12-14T04:01:31.559Z,6.45
2023-12-14T04:03:57.998Z,6.45
2023-12-14T04:06:24.573Z,6.46
2023-12-14T04:08:51.059Z,6.46
2023-12-14T04:11:17.599Z,6.46
2023-12-14T04:13:44.156Z,6.45
2023-12-14T04:16:10.635Z,6.46
2023-12-14T04:18:38.513Z,6.45
2023-12-14T04:21:06.055Z,6.45
2023-12-14T04:23:32.643Z,6.44
2023-12-14T04:25:59.096Z,6.44
2023-12-14T04:28:25.755Z,6.44
2023-12-14T04:30:52.387Z,6.45
2023-12-14T04:33:18.911Z,6.45
2023-12-14T04:35:45.554Z,6.46
2023-12-14T04:38:12.182Z,6.47
2023-12-14T04:40:41.386Z,6.48
2023-12-14T04:43:09.298Z,6.47
2023-12-14T04:45:35.741Z,6.49
2023-12-14T04:48:02.517Z,6.47
2023-12-14T04:50:29.084Z,6.45
2023-12-14T04:52:55.779Z,6.43
2023-12-14T04:55:22.295Z,6.43
2023-12-14T04:57:49.965Z,6.44
2023-12-14T05:00:16.723Z,6.42
2023-12-14T05:02:48.875Z,6.45
2023-12-14T05:05:15.675Z,6.46
2023-12-14T05:07:42.144Z,6.45
2023-12-14T05:10:08.920Z,6.47
2023-12-14T05:12:35.822Z,6.46
2023-12-14T05:15:02.371Z,6.49
2023-12-14T05:17:28.947Z,6.48
2023-12-14T05:19:55.358Z,6.50
2023-12-14T05:22:23.578Z,6.50
2023-12-14T05:24:50.226Z,6.51
2023-12-14T05:27:16.712Z,6.52
2023-12-14T05:29:43.318Z,6.54
2023-12-14T05:32:09.866Z,6.51
2023-12-14T05:34:36.351Z,6.54
2023-12-14T05:37:03.224Z,6.54
2023-12-14T05:39:29.733Z,6.55
2023-12-14T05:41:56.213Z,6.54
2023-12-14T05:44:23.724Z,6.55
2023-12-14T05:46:50.815Z,6.55
2023-12-14T05:49:17.923Z,6.53
2023-12-14T05:51:44.474Z,6.52
2023-12-14T05:54:11.034Z,6.53
2023-12-14T05:56:40.259Z,6.51
2023-12-14T05:59:07.309Z,6.52
2023-12-14T06:01:34.008Z,6.53
2023-12-14T06:04:00.607Z,6.51
2023-12-14T06:06:27.319Z,6.51
2023-12-14T06:08:53.814Z,6.53
2023-12-14T06:11:21.459Z,6.53
2023-12-14T06:13:48.174Z,6.54
2023-12-14T06:16:14.935Z,6.54
2023-12-14T06:18:44.948Z,6.55
2023-12-14T06:21:12.750Z,6.56
2023-12-14T06:23:39.183Z,6.56
2023-12-14T06:26:07.316Z,6.55
2023-12-14T06:28:33.936Z,6.56
2023-12-14T06:31:02.715Z,6.56
2023-12-14T06:33:29.505Z,6.57
2023-12-14T06:35:56.091Z,6.56
2023-12-14T06:38:22.595Z,6.55
2023-12-14T06:40:49.250Z,6.54
2023-12-14T06:43:15.746Z,6.54
2023-12-14T06:45:42.295Z,6.55
2023-12-14T06:48:08.869Z,6.57
2023-12-14T06:50:35.341Z,6.57
2023-12-14T06:53:01.814Z,6.58
2023-12-14T06:55:28.517Z,6.61
2023-12-14T06:57:54.965Z,6.60
2023-12-14T07:00:21.890Z,6.59
2023-12-14T07:02:48.396Z,6.59
2023-12-14T07:05:15.331Z,6.59
2023-12-14T07:07:42.654Z,6.60
2023-12-14T07:10:09.540Z,6.60
2023-12-14T07:12:36.165Z,6.62
2023-12-14T07:15:02.989Z,6.63
2023-12-14T07:17:29.511Z,6.64
2023-12-14T07:19:58.917Z,6.65
2023-12-14T07:22:26.904Z,6.66
2023-12-14T07:24:59.688Z,6.67
2023-12-14T07:27:26.837Z,6.68
2023-12-14T07:29:53.306Z,6.68
2023-12-14T07:32:19.838Z,6.70
2023-12-14T07:34:46.405Z,6.69
2023-12-14T07:37:12.993Z,6.72
2023-12-14T07:39:39.563Z,6.74
2023-12-14T07:42:06.755Z,6.76
2023-12-14T07:44:34.489Z,6.74
2023-12-14T07:47:01.537Z,6.78
2023-12-14T07:49:28.109Z,6.80
2023-12-14T07:51:54.988Z,6.84
2023-12-14T07:54:21.591Z,6.88
2023-12-14T07:56:48.195Z,6.88
2023-12-14T07:59:14.904Z,6.89
2023-12-14T08:01:42.459Z,6.93
2023-12-14T08:04:09.225Z,6.94
2023-12-14T08:06:36.474Z,6.96
2023-12-14T08:09:03.196Z,6.97
2023-12-14T08:11:29.627Z,6.97
2023-12-14T08:13:56.089Z,7.00
2023-12-14T08:16:22.538Z,7.03
2023-12-14T08:18:49.830Z,7.04
2023-12-14T08:21:17.031Z,7.08
2023-12-14T08:23:44.055Z,7.11
2023-12-14T08:26:12.715Z,7.14
2023-12-14T08:28:42.566Z,7.16
2023-12-14T08:31:10.812Z,7.17
2023-12-14T08:33:37.894Z,7.18
2023-12-14T08:36:06.138Z,7.17
2023-12-14T08:38:32.613Z,7.18
2023-12-14T08:40:59.714Z,7.18
2023-12-14T08:43:26.400Z,7.18
2023-12-14T08:45:52.830Z,7.20
2023-12-14T08:48:19.997Z,7.24
2023-12-14T08:50:46.614Z,7.32
2023-12-14T08:53:13.300Z,7.44
2023-12-14T08:55:39.936Z,7.48
2023-12-14T08:58:06.403Z,7.51
2023-12-14T09:00:32.805Z,7.53
2023-12-14T09:02:59.631Z,7.52
2023-12-14T09:05:27.444Z,7.49
2023-12-14T09:07:57.068Z,7.45
2023-12-14T09:10:23.974Z,7.44
2023-12-14T09:12:50.555Z,7.42
2023-12-14T09:15:17.428Z,7.42
2023-12-14T09:17:44.493Z,7.45
2023-12-14T09:20:12.571Z,7.52
2023-12-14T09:22:39.252Z,7.62
2023-12-14T09:25:06.427Z,7.79
2023-12-14T09:27:32.976Z,7.93
2023-12-14T09:29:59.560Z,8.06
2023-12-14T09:32:26.177Z,8.14
2023-12-14T09:34:53.133Z,8.09
2023-12-14T09:37:20.361Z,7.99
2023-12-14T09:39:47.023Z,7.88
2023-12-14T09:42:17.336Z,7.83
2023-12-14T09:44:44.816Z,7.83
2023-12-14T09:47:11.214Z,7.83
2023-12-14T09:49:39.326Z,7.85
2023-12-14T09:52:06.094Z,7.93
2023-12-14T09:54:32.576Z,8.03
2023-12-14T09:57:02.554Z,8.11
2023-12-14T09:59:29.060Z,8.19
2023-12-14T10:02:10.605Z,8.30
2023-12-14T10:04:37.937Z,8.33
2023-12-14T10:07:08.336Z,8.33
2023-12-14T10:09:37.467Z,8.32
2023-12-14T10:12:09.530Z,8.29
2023-12-14T10:14:37.677Z,8.29
2023-12-14T10:17:19.523Z,8.24
2023-12-14T10:19:48.125Z,8.25
2023-12-14T10:22:16.766Z,8.30
2023-12-14T10:24:47.994Z,8.33
2023-12-14T10:27:17.879Z,8.38
2023-12-14T10:29:47.220Z,8.38
2023-12-14T10:32:14.005Z,8.30
2023-12-14T10:34:41.459Z,8.20
2023-12-14T10:37:08.195Z,8.15
2023-12-14T10:39:38.994Z,8.09
2023-12-14T10:42:16.806Z,8.02
2023-12-14T10:45:05.285Z,8.00
2023-12-14T10:47:35.482Z,7.99
2023-12-14T10:50:03.157Z,8.00
2023-12-14T10:52:31.392Z,8.04
2023-12-14T10:55:03.202Z,8.09
2023-12-14T10:57:30.161Z,8.13
2023-12-14T10:59:59.860Z,8.18
2023-12-14T11:02:26.363Z,8.23
2023-12-14T11:05:00.835Z,8.26
2023-12-14T11:07:51.333Z,8.28
2023-12-14T11:10:24.314Z,8.32
2023-12-14T11:12:58.405Z,8.31
2023-12-14T11:15:25.617Z,8.35
2023-12-14T11:18:13.757Z,8.40
2023-12-14T11:20:46.853Z,8.39
2023-12-14T11:23:14.695Z,8.38
2023-12-14T11:25:45.955Z,8.36
2023-12-14T11:28:14.897Z,8.37
2023-12-14T11:30:52.396Z,8.38
2023-12-14T11:33:23.118Z,8.39
2023-12-14T11:35:51.806Z,8.38
2023-12-14T11:38:19.415Z,8.40
2023-12-14T11:40:46.450Z,8.43
2023-12-14T11:43:13.690Z,8.46
2023-12-14T11:45:41.445Z,8.47
2023-12-14T11:48:11.642Z,8.44
2023-12-14T11:50:44.330Z,8.38
2023-12-14T11:53:11.515Z,8.31
2023-12-14T11:55:41.082Z,8.28
2023-12-14T11:58:08.392Z,8.29
2023-12-14T12:00:39.272Z,8.29
2023-12-14T12:03:22.494Z,8.34
2023-12-14T12:05:51.483Z,8.42
2023-12-14T12:08:20.980Z,8.43
2023-12-14T12:10:48.986Z,8.41
2023-12-14T12:13:17.638Z,8.33
2023-12-14T12:15:44.895Z,8.28
2023-12-14T12:18:13.306Z,8.21
2023-12-14T12:20:40.350Z,8.18
2023-12-14T12:23:07.766Z,8.14
2023-12-14T12:25:35.241Z,8.12
2023-12-14T12:28:03.135Z,8.14
2023-12-14T12:30:30.117Z,8.13
2023-12-14T12:32:57.187Z,8.16
2023-12-14T12:35:24.907Z,8.20
2023-12-14T12:37:55.003Z,8.23
2023-12-14T12:40:34.004Z,8.22
2023-12-14T12:43:00.573Z,8.21
2023-12-14T12:45:29.433Z,8.15
2023-12-14T12:47:56.631Z,8.15
2023-12-14T12:50:23.285Z,8.14
2023-12-14T12:52:50.430Z,8.14
2023-12-14T12:55:17.410Z,8.16
2023-12-14T12:57:44.202Z,8.19
2023-12-14T13:00:12.461Z,8.23
2023-12-14T13:02:40.656Z,8.26
2023-12-14T13:05:09.252Z,8.26
2023-12-14T13:07:37.909Z,8.25
2023-12-14T13:10:16.209Z,8.24
2023-12-14T13:12:51.930Z,8.16
2023-12-14T13:15:20.040Z,8.10
2023-12-14T13:17:46.817Z,8.02
2023-12-14T13:20:13.676Z,7.98
2023-12-14T13:22:40.763Z,7.94
2023-12-14T13:25:07.686Z,7.91
2023-12-14T13:27:37.520Z,7.83
2023-12-14T13:30:06.375Z,7.78
2023-12-14T13:32:32.835Z,7.73
2023-12-14T13:34:59.481Z,7.71
2023-12-14T13:37:26.047Z,7.67
2023-12-14T13:39:54.049Z,7.58
2023-12-14T13:42:21.076Z,7.55
2023-12-14T13:44:47.618Z,7.50
2023-12-14T13:47:14.116Z,7.48
2023-12-14T13:49:40.697Z,7.44
2023-12-14T13:52:07.394Z,7.43
2023-12-14T13:57:18.333Z,7.49
2023-12-14T13:59:44.873Z,7.47
2023-12-14T14:02:12.516Z,7.44
2023-12-14T14:04:39.085Z,7.44
2023-12-14T14:07:05.524Z,7.43
2023-12-14T14:09:34.260Z,7.42
2023-12-14T14:14:44.923Z,7.38
2023-12-14T14:17:12.022Z,7.38
2023-12-14T14:19:38.547Z,7.36
2023-12-14T14:22:05.792Z,7.35
2023-12-14T14:24:32.790Z,7.34
2023-12-14T14:26:59.635Z,7.34
2023-12-14T14:29:26.315Z,7.33
2023-12-14T14:31:52.904Z,7.32
2023-12-14T14:34:21.409Z,7.32
2023-12-14T14:36:48.573Z,7.32
2023-12-14T14:39:18.116Z,7.31
2023-12-14T14:41:44.664Z,7.32
2023-12-14T14:44:11.343Z,7.30
2023-12-14T14:46:37.794Z,7.30
2023-12-14T14:49:04.374Z,7.30
2023-12-14T14:51:31.237Z,7.29
2023-12-14T14:53:58.202Z,7.29
2023-12-14T14:56:24.736Z,7.28
2023-12-14T14:58:51.276Z,7.27
2023-12-14T15:01:17.776Z,7.26
2023-12-14T15:03:44.321Z,7.27
2023-12-14T15:06:10.871Z,7.26
2023-12-14T15:08:37.373Z,7.26
2023-12-14T15:11:04.373Z,7.26
2023-12-14T15:13:30.899Z,7.26
2023-12-14T15:15:57.390Z,7.27
2023-12-14T15:18:24.173Z,7.25
2023-12-14T15:20:52.662Z,7.25
2023-12-14T15:23:19.797Z,7.23
2023-12-14T15:25:46.648Z,7.22
2023-12-14T15:28:13.613Z,7.22
2023-12-14T15:30:40.173Z,7.22
2023-12-14T15:33:09.703Z,7.24
2023-12-14T15:35:36.788Z,7.22
2023-12-14T15:38:04.187Z,7.22
2023-12-14T15:40:30.877Z,7.22
2023-12-14T15:42:57.339Z,7.21
2023-12-14T15:45:24.239Z,7.21
2023-12-14T15:47:51.862Z,7.19
2023-12-14T15:50:18.415Z,7.19
2023-12-14T15:52:44.950Z,7.20
2023-12-14T15:55:11.607Z,7.18
2023-12-14T15:57:38.495Z,7.17
2023-12-14T16:00:05.767Z,7.16
2023-12-14T16:02:32.302Z,7.15
2023-12-14T16:04:59.064Z,7.15
2023-12-14T16:07:25.639Z,7.15
2023-12-14T16:09:52.187Z,7.13
2023-12-14T16:12:18.638Z,7.13
2023-12-14T16:14:45.332Z,7.12
2023-12-14T16:17:11.854Z,7.14
2023-12-14T16:19:38.355Z,7.13
2023-12-14T16:22:05.565Z,7.15
2023-12-14T16:24:31.978Z,7.13
2023-12-14T16:26:59.848Z,7.13
2023-12-14T16:29:28.080Z,7.15
2023-12-14T16:31:54.922Z,7.14
2023-12-14T16:34:21.598Z,7.13
2023-12-14T16:36:49.082Z,7.15
2023-12-14T16:39:15.690Z,7.15
2023-12-14T16:41:42.131Z,7.17
2023-12-14T16:44:09.354Z,7.16
2023-12-14T16:46:36.082Z,7.16
2023-12-14T16:49:02.792Z,7.16
2023-12-14T16:51:29.375Z,7.17
2023-12-14T16:53:57.092Z,7.17
2023-12-14T16:56:30.506Z,7.17
2023-12-14T16:58:57.819Z,7.18
2023-12-14T17:01:24.554Z,7.19
2023-12-14T17:03:51.001Z,7.19
2023-12-14T17:06:22.120Z,7.18
2023-12-14T17:08:48.883Z,7.17
2023-12-14T17:11:15.616Z,7.12
2023-12-14T17:13:42.148Z,7.06
2023-12-14T17:16:16.165Z,7.01
2023-12-14T17:18:43.850Z,6.93
2023-12-14T17:21:20.136Z,6.85
2023-12-14T17:23:47.308Z,6.76
2023-12-14T17:26:17.429Z,6.70
2023-12-14T17:28:48.791Z,6.65
2023-12-14T17:31:17.169Z,6.58
2023-12-14T17:33:44.490Z,6.55
2023-12-14T17:36:11.431Z,6.55
2023-12-14T17:38:37.911Z,6.54
2023-12-14T17:41:12.928Z,6.53
2023-12-14T17:43:40.868Z,6.53
2023-12-14T17:46:07.742Z,6.56
2023-12-14T17:48:34.740Z,6.55
2023-12-14T17:51:02.127Z,6.55
2023-12-14T17:53:28.594Z,6.53
2023-12-14T17:55:56.493Z,6.55
2023-12-14T17:58:23.062Z,6.55
2023-12-14T18:00:49.750Z,6.54
2023-12-14T18:03:16.333Z,6.55
2023-12-14T18:05:43.135Z,6.56
2023-12-14T18:08:09.679Z,6.56
2023-12-14T18:10:39.717Z,6.55
2023-12-14T18:13:06.327Z,6.53
2023-12-14T18:15:33.302Z,6.51
2023-12-14T18:17:59.898Z,6.48
2023-12-14T18:20:26.659Z,6.48
2023-12-14T18:22:53.612Z,6.44
2023-12-14T18:25:23.258Z,6.44
2023-12-14T18:27:52.536Z,6.43
2023-12-14T18:30:19.289Z,6.41
2023-12-14T18:32:47.789Z,6.41
2023-12-14T18:35:14.466Z,6.41
2023-12-14T18:37:40.941Z,6.39
2023-12-14T18:40:08.018Z,6.40
2023-12-14T18:42:34.570Z,6.39
2023-12-14T18:45:01.029Z,6.38
2023-12-14T18:47:27.756Z,6.37
2023-12-14T18:49:54.446Z,6.35
2023-12-14T18:52:21.401Z,6.35
2023-12-14T18:54:48.070Z,6.33
2023-12-14T18:57:15.918Z,6.30
2023-12-14T18:59:42.319Z,6.27
2023-12-14T19:02:08.887Z,6.25
2023-12-14T19:04:35.421Z,6.22
2023-12-14T19:07:02.090Z,6.21
2023-12-14T19:09:28.536Z,6.18
2023-12-14T19:11:54.955Z,6.15
2023-12-14T19:14:21.603Z,6.13
2023-12-14T19:16:50.876Z,6.11
2023-12-14T19:19:17.813Z,6.10
2023-12-14T19:21:45.266Z,6.10
2023-12-14T19:24:11.702Z,6.10
2023-12-14T19:26:39.952Z,6.10
2023-12-14T19:29:07.490Z,6.07
2023-12-14T19:31:34.096Z,6.06
2023-12-14T19:34:02.133Z,6.06
2023-12-14T19:36:28.778Z,6.07
2023-12-14T19:38:55.336Z,6.08
2023-12-14T19:41:22.012Z,6.05
2023-12-14T19:43:48.650Z,6.06
2023-12-14T19:46:16.111Z,6.06
2023-12-14T19:48:43.390Z,6.07
2023-12-14T19:51:10.230Z,6.07
2023-12-14T19:53:36.655Z,6.05
2023-12-14T19:56:03.392Z,6.03
2023-12-14T19:58:30.047Z,6.02
2023-12-14T20:00:56.465Z,6.01
2023-12-14T20:03:23.036Z,6.00
2023-12-14T20:05:49.834Z,6.01
2023-12-14T20:08:17.204Z,6.01
2023-12-14T20:10:47.049Z,6.02
2023-12-14T20:13:13.613Z,5.99
2023-12-14T20:15:41.244Z,5.96
2023-12-14T20:18:09.275Z,5.96
2023-12-14T20:20:36.701Z,5.93
2023-12-14T20:23:04.345Z,5.93
2023-12-14T20:25:33.497Z,5.91
2023-12-14T20:28:01.315Z,5.92
2023-12-14T20:30:27.778Z,5.90
2023-12-14T20:32:54.382Z,5.87
2023-12-14T20:35:20.944Z,5.88
2023-12-14T20:37:47.563Z,5.85
2023-12-14T20:40:18.978Z,5.82
2023-12-14T20:42:46.254Z,5.82
2023-12-14T20:45:13.340Z,5.78
2023-12-14T20:47:40.659Z,5.78
2023-12-14T20:50:08.615Z,5.76
2023-12-14T20:52:38.896Z,5.72
2023-12-14T20:55:07.098Z,5.68
2023-12-14T20:57:34.217Z,5.68
2023-12-14T21:00:00.999Z,5.69
2023-12-14T21:02:27.718Z,5.69
2023-12-14T21:04:54.333Z,5.66
2023-12-14T21:07:20.975Z,5.64
2023-12-14T21:09:47.598Z,5.63
2023-12-14T21:12:14.077Z,5.61
2023-12-14T21:14:40.508Z,5.61
2023-12-14T21:17:07.030Z,5.59
2023-12-14T21:19:35.696Z,5.58
2023-12-14T21:22:02.684Z,5.57
2023-12-14T21:24:30.743Z,5.55
2023-12-14T21:27:29.732Z,5.54
2023-12-14T21:29:56.545Z,5.51
2023-12-14T21:32:23.098Z,5.49
2023-12-14T21:34:49.702Z,5.47
2023-12-14T21:37:16.527Z,5.45
2023-12-14T21:39:43.324Z,5.42
2023-12-14T21:42:09.786Z,5.39
2023-12-14T21:44:36.220Z,5.36
2023-12-14T21:47:02.813Z,5.32
2023-12-14T21:49:29.275Z,5.27
2023-12-14T21:51:55.767Z,5.24
2023-12-14T21:54:22.356Z,5.20
2023-12-14T21:56:48.899Z,5.17
2023-12-14T21:59:15.596Z,5.14
2023-12-14T22:01:42.166Z,5.10
2023-12-14T22:04:08.667Z,5.06
2023-12-14T22:06:35.159Z,5.03
2023-12-14T22:09:01.651Z,4.99
2023-12-14T22:11:28.133Z,4.96
2023-12-14T22:13:54.675Z,4.96
2023-12-14T22:16:21.186Z,4.92
2023-12-14T22:18:47.857Z,4.90
2023-12-14T22:21:14.299Z,4.87
2023-12-14T22:23:40.993Z,4.83
2023-12-14T22:26:08.184Z,4.81
2023-12-14T22:28:34.715Z,4.79
2023-12-14T22:31:01.311Z,4.76
2023-12-14T22:33:27.897Z,4.71
2023-12-14T22:35:54.437Z,4.64
2023-12-14T22:38:21.057Z,4.60
2023-12-14T22:40:47.833Z,4.58
2023-12-14T22:43:14.326Z,4.56
2023-12-14T22:45:40.776Z,4.53
2023-12-14T22:48:07.300Z,4.53
2023-12-14T22:50:34.003Z,4.54
2023-12-14T22:53:00.660Z,4.55
2023-12-14T22:55:28.440Z,4.55
2023-12-14T22:57:57.974Z,4.55
2023-12-14T23:00:29.382Z,4.56
2023-12-14T23:02:56.361Z,4.56
2023-12-14T23:05:23.029Z,4.57
2023-12-14T23:07:49.531Z,4.57
2023-12-14T23:10:16.259Z,4.57
2023-12-14T23:12:42.753Z,4.57
2023-12-14T23:15:09.653Z,4.57
2023-12-14T23:17:36.638Z,4.59
2023-12-14T23:20:03.684Z,4.60
2023-12-14T23:22:30.226Z,4.61
2023-12-14T23:24:56.726Z,4.62
2023-12-14T23:27:23.204Z,4.62
2023-12-14T23:29:49.843Z,4.64
2023-12-14T23:32:16.396Z,4.63
2023-12-14T23:34:43.101Z,4.63
2023-12-14T23:37:09.547Z,4.65
2023-12-14T23:39:36.012Z,4.66
2023-12-14T23:42:02.550Z,4.68
2023-12-14T23:44:29.259Z,4.69
2023-12-14T23:46:56.056Z,4.69
2023-12-14T23:49:22.589Z,4.69
2023-12-14T23:51:49.043Z,4.70
2023-12-14T23:54:15.548Z,4.73
2023-12-14T23:56:42.038Z,4.70
2023-12-14T23:59:08.532Z,4.70
